createdAt,value
2023-04-13T00:01:55.827Z,16.20
2023-04-13T00:04:24.122Z,13.85
2023-04-13T00:06:52.328Z,14.15
2023-04-13T00:09:20.340Z,13.75
2023-04-13T00:11:48.607Z,14.23
2023-04-13T00:14:16.648Z,14.43
2023-04-13T00:16:45.953Z,14.52
2023-04-13T00:19:14.288Z,14.43
2023-04-13T00:21:42.371Z,14.15
2023-04-13T00:24:10.636Z,16.38
2023-04-13T00:27:16.522Z,16.88
2023-04-13T00:29:44.707Z,15.88
2023-04-13T00:32:12.757Z,15.48
2023-04-13T00:34:41.014Z,16.85
2023-04-13T00:37:09.104Z,14.15
2023-04-13T00:39:37.385Z,15.40
2023-04-13T00:42:07.434Z,15.02
2023-04-13T00:44:36.463Z,14.88
2023-04-13T00:47:05.298Z,16.20
2023-04-13T00:49:35.169Z,15.40
2023-04-13T00:52:03.933Z,14.93
2023-04-13T00:54:33.402Z,15.98
2023-04-13T00:57:02.259Z,16.60
2023-04-13T00:59:30.464Z,17.35
2023-04-13T01:01:58.754Z,16.98
2023-04-13T01:04:28.099Z,18.23
2023-04-13T01:07:07.669Z,19.08
2023-04-13T01:09:40.766Z,21.30
2023-04-13T01:12:19.561Z,23.05
2023-04-13T01:15:12.664Z,24.40
2023-04-13T01:17:46.420Z,23.17
2023-04-13T01:22:56.782Z,18.27
2023-04-13T01:25:41.654Z,16.27
2023-04-13T01:28:17.298Z,15.35
2023-04-13T01:30:49.975Z,14.65
2023-04-13T01:33:19.472Z,13.60
2023-04-13T01:35:49.270Z,14.40
2023-04-13T01:38:25.933Z,15.07
2023-04-13T01:40:56.914Z,14.77
2023-04-13T01:43:28.284Z,15.98
2023-04-13T01:46:16.723Z,17.48
2023-04-13T01:48:57.899Z,16.33
2023-04-13T01:51:37.791Z,17.38
2023-04-13T01:54:16.139Z,21.02
2023-04-13T01:56:47.362Z,21.77
2023-04-13T01:59:15.688Z,21.13
2023-04-13T02:01:44.578Z,22.88
2023-04-13T02:04:13.286Z,21.13
2023-04-13T02:06:43.835Z,22.15
2023-04-13T02:09:12.330Z,21.30
2023-04-13T02:11:40.375Z,20.30
2023-04-13T02:14:09.172Z,21.40
2023-04-13T02:16:37.641Z,20.90
2023-04-13T02:19:05.769Z,19.55
2023-04-13T02:21:34.340Z,21.50
2023-04-13T02:24:02.696Z,20.15
2023-04-13T02:26:30.775Z,20.25
2023-04-13T02:28:59.046Z,17.92
2023-04-13T02:31:27.307Z,19.90
2023-04-13T02:33:55.503Z,17.42
2023-04-13T02:36:25.335Z,18.38
2023-04-13T02:38:58.110Z,17.30
2023-04-13T02:41:29.792Z,15.80
2023-04-13T02:43:59.154Z,15.77
2023-04-13T02:46:32.781Z,15.95
2023-04-13T02:49:13.165Z,15.70
2023-04-13T02:51:51.964Z,14.23
2023-04-13T02:54:26.570Z,13.57
2023-04-13T02:56:54.923Z,13.32
2023-04-13T02:59:23.335Z,12.88
2023-04-13T03:01:51.783Z,11.00
2023-04-13T03:04:23.134Z,11.83
2023-04-13T03:06:52.496Z,11.27
2023-04-13T03:09:21.428Z,11.75
2023-04-13T03:11:54.641Z,11.07
2023-04-13T03:14:24.755Z,11.70
2023-04-13T03:16:58.670Z,11.60
2023-04-13T03:19:35.214Z,10.57
2023-04-13T03:22:03.645Z,10.35
2023-04-13T03:24:33.166Z,10.13
2023-04-13T03:27:06.364Z,10.18
2023-04-13T03:29:43.760Z,11.25
2023-04-13T03:32:16.880Z,10.00
2023-04-13T03:34:49.541Z,10.25
2023-04-13T03:37:17.989Z,8.93
2023-04-13T03:39:46.594Z,10.13
2023-04-13T03:42:19.241Z,9.07
2023-04-13T03:44:54.065Z,10.63
2023-04-13T03:47:22.412Z,9.20
2023-04-13T03:49:50.980Z,9.13
2023-04-13T03:52:19.246Z,8.57
2023-04-13T03:54:54.788Z,7.80
2023-04-13T03:57:23.394Z,8.88
2023-04-13T03:59:51.773Z,7.60
2023-04-13T04:02:28.566Z,7.93
2023-04-13T04:04:56.940Z,7.85
2023-04-13T04:07:25.099Z,8.27
2023-04-13T04:09:54.232Z,8.15
2023-04-13T04:12:25.149Z,7.85
2023-04-13T04:14:53.656Z,7.57
2023-04-13T04:17:26.778Z,7.78
2023-04-13T04:19:55.782Z,7.65
2023-04-13T04:22:26.670Z,8.60
2023-04-13T04:24:54.985Z,8.70
2023-04-13T04:27:23.292Z,8.23
2023-04-13T04:29:51.795Z,8.45
2023-04-13T04:32:27.579Z,7.53
2023-04-13T04:34:57.208Z,9.23
2023-04-13T04:37:27.053Z,8.25
2023-04-13T04:40:08.933Z,8.02
2023-04-13T04:42:38.046Z,7.90
2023-04-13T04:45:11.375Z,7.30
2023-04-13T04:47:44.046Z,6.78
2023-04-13T04:50:17.946Z,6.70
2023-04-13T04:52:50.635Z,6.65
2023-04-13T04:55:22.649Z,7.47
2023-04-13T04:57:51.156Z,6.57
2023-04-13T05:00:21.912Z,6.72
2023-04-13T05:03:13.330Z,7.30
2023-04-13T05:05:47.032Z,6.70
2023-04-13T05:08:21.617Z,7.63
2023-04-13T05:10:51.197Z,7.50
2023-04-13T05:13:20.573Z,7.28
2023-04-13T05:16:00.603Z,8.52
2023-04-13T05:18:32.356Z,8.27
2023-04-13T05:21:00.903Z,7.90
2023-04-13T05:23:29.652Z,6.53
2023-04-13T05:26:06.398Z,7.82
2023-04-13T05:28:34.699Z,9.10
2023-04-13T05:31:07.559Z,7.95
2023-04-13T05:33:39.316Z,8.35
2023-04-13T05:36:08.425Z,8.85
2023-04-13T05:38:38.069Z,8.90
2023-04-13T05:41:06.820Z,8.30
2023-04-13T05:43:36.477Z,8.23
2023-04-13T05:46:05.733Z,9.60
2023-04-13T05:48:34.652Z,7.57
2023-04-13T05:51:07.316Z,8.73
2023-04-13T05:53:36.929Z,8.13
2023-04-13T05:56:05.561Z,8.05
2023-04-13T05:58:35.385Z,9.98
2023-04-13T06:01:15.496Z,9.07
2023-04-13T06:03:44.201Z,8.30
2023-04-13T06:06:12.756Z,7.75
2023-04-13T06:08:41.415Z,8.00
2023-04-13T06:11:09.688Z,8.13
2023-04-13T06:13:38.535Z,8.13
2023-04-13T06:16:07.163Z,8.00
2023-04-13T06:18:35.407Z,7.38
2023-04-13T06:21:04.412Z,8.02
2023-04-13T06:23:32.772Z,8.82
2023-04-13T06:26:05.830Z,8.63
2023-04-13T06:28:54.491Z,8.73
2023-04-13T06:31:23.713Z,7.95
2023-04-13T06:33:52.964Z,7.88
2023-04-13T06:36:26.624Z,8.50
2023-04-13T06:38:57.335Z,8.85
2023-04-13T06:41:26.934Z,9.05
2023-04-13T06:44:11.720Z,9.13
2023-04-13T06:47:08.870Z,8.82
2023-04-13T06:49:37.563Z,8.15
2023-04-13T06:52:07.301Z,8.43
2023-04-13T06:54:36.290Z,8.27
2023-04-13T06:57:17.331Z,7.65
2023-04-13T06:59:45.596Z,7.93
2023-04-13T07:02:14.090Z,7.32
2023-04-13T07:04:42.434Z,7.97
2023-04-13T07:07:11.330Z,7.75
2023-04-13T07:09:39.658Z,8.48
2023-04-13T07:12:08.327Z,7.88
2023-04-13T07:14:39.958Z,8.80
2023-04-13T07:17:13.170Z,9.57
2023-04-13T07:19:46.915Z,8.57
2023-04-13T07:22:16.241Z,7.07
2023-04-13T07:24:47.116Z,7.38
2023-04-13T07:27:20.822Z,6.90
2023-04-13T07:29:52.585Z,8.68
2023-04-13T07:32:30.240Z,9.20
2023-04-13T07:34:59.249Z,7.25
2023-04-13T07:37:27.626Z,8.73
2023-04-13T07:39:56.367Z,8.32
2023-04-13T07:42:26.568Z,8.02
2023-04-13T07:44:58.381Z,7.32
2023-04-13T07:47:29.003Z,7.43
2023-04-13T07:50:03.176Z,8.15
2023-04-13T07:52:31.492Z,7.93
2023-04-13T07:54:59.829Z,8.63
2023-04-13T07:57:28.847Z,8.65
2023-04-13T08:00:01.682Z,9.25
2023-04-13T08:02:31.277Z,7.03
2023-04-13T08:05:00.684Z,7.07
2023-04-13T08:07:32.126Z,6.68
2023-04-13T08:10:01.615Z,7.53
2023-04-13T08:12:30.216Z,6.97
2023-04-13T08:14:58.640Z,8.32
2023-04-13T08:17:27.208Z,6.90
2023-04-13T08:19:55.722Z,7.20
2023-04-13T08:22:24.335Z,7.10
2023-04-13T08:25:44.196Z,6.82
2023-04-13T08:28:12.723Z,7.10
2023-04-13T08:30:41.843Z,8.13
2023-04-13T08:33:10.558Z,8.75
2023-04-13T08:35:39.139Z,7.65
2023-04-13T08:38:09.726Z,7.78
2023-04-13T08:43:20.096Z,7.43
2023-04-13T08:45:49.475Z,6.70
2023-04-13T08:48:18.132Z,8.63
2023-04-13T08:50:48.398Z,8.60
2023-04-13T08:53:17.861Z,8.45
2023-04-13T08:55:48.182Z,7.53
2023-04-13T08:58:19.754Z,7.93
2023-04-13T09:00:48.629Z,8.00
2023-04-13T09:03:26.371Z,8.02
2023-04-13T09:06:04.052Z,8.43
2023-04-13T09:08:36.807Z,9.07
2023-04-13T09:11:08.682Z,8.18
2023-04-13T09:13:37.239Z,9.30
2023-04-13T09:16:08.772Z,10.23
2023-04-13T09:18:56.424Z,10.18
2023-04-13T09:21:36.943Z,9.65
2023-04-13T09:24:06.746Z,10.82
2023-04-13T09:26:48.545Z,10.23
2023-04-13T09:29:18.902Z,11.48
2023-04-13T09:31:48.505Z,9.40
2023-04-13T09:34:30.022Z,12.38
2023-04-13T09:37:00.973Z,11.25
2023-04-13T09:41:58.291Z,11.30
2023-04-13T09:44:26.607Z,11.68
2023-04-13T09:47:02.601Z,10.00
2023-04-13T09:49:42.991Z,11.13
2023-04-13T09:52:24.602Z,15.05
2023-04-13T09:54:54.910Z,11.65
2023-04-13T09:57:30.740Z,12.23
2023-04-13T10:00:00.373Z,11.18
2023-04-13T10:02:29.215Z,11.98
2023-04-13T10:04:58.327Z,11.02
2023-04-13T10:07:26.454Z,11.18
2023-04-13T10:09:55.133Z,10.88
2023-04-13T10:12:27.499Z,11.55
2023-04-13T10:15:16.722Z,14.43
2023-04-13T10:17:57.157Z,26.13
2023-04-13T10:20:27.292Z,12.77
2023-04-13T10:22:56.569Z,26.08
2023-04-13T10:25:33.058Z,20.45
2023-04-13T10:28:02.571Z,11.25
2023-04-13T10:30:30.862Z,10.77
2023-04-13T10:33:03.939Z,11.02
2023-04-13T10:35:35.538Z,11.80
2023-04-13T10:38:04.035Z,13.40
2023-04-13T10:40:43.681Z,9.63
2023-04-13T10:43:12.079Z,9.23
2023-04-13T10:45:40.279Z,11.45
2023-04-13T10:48:08.753Z,10.70
2023-04-13T10:50:37.012Z,9.65
2023-04-13T10:53:06.698Z,8.70
2023-04-13T10:55:35.982Z,10.65
2023-04-13T10:58:15.411Z,12.20
2023-04-13T11:00:46.943Z,12.55
2023-04-13T11:03:16.992Z,9.93
2023-04-13T11:05:47.691Z,10.98
2023-04-13T11:08:20.329Z,9.98
2023-04-13T11:10:53.025Z,11.02
2023-04-13T11:13:22.505Z,9.48
2023-04-13T11:15:50.691Z,11.70
2023-04-13T11:18:28.500Z,10.65
2023-04-13T11:21:00.272Z,11.73
2023-04-13T11:23:28.931Z,12.90
2023-04-13T11:26:00.499Z,13.10
2023-04-13T11:28:48.955Z,14.75
2023-04-13T11:31:17.184Z,10.57
2023-04-13T11:33:49.920Z,9.98
2023-04-13T11:36:18.330Z,11.65
2023-04-13T11:38:48.353Z,13.57
2023-04-13T11:41:17.436Z,12.48
2023-04-13T11:43:46.681Z,16.70
2023-04-13T11:46:15.541Z,13.20
2023-04-13T11:48:44.494Z,12.52
2023-04-13T11:51:16.131Z,12.35
2023-04-13T11:53:44.633Z,10.27
2023-04-13T11:56:13.308Z,9.10
2023-04-13T11:58:41.740Z,9.80
2023-04-13T12:03:53.358Z,8.67
2023-04-13T12:06:26.169Z,14.63
2023-04-13T12:09:10.320Z,9.80
2023-04-13T12:11:48.688Z,8.93
2023-04-13T12:19:29.980Z,8.43
2023-04-13T12:22:00.349Z,9.38
2023-04-13T12:24:34.227Z,9.02
2023-04-13T12:29:38.828Z,9.65
2023-04-13T12:32:16.221Z,11.02
2023-04-13T12:34:44.960Z,15.02
2023-04-13T12:37:13.207Z,10.65
2023-04-13T12:39:43.034Z,9.75
2023-04-13T12:42:11.404Z,8.68
2023-04-13T12:44:39.565Z,8.98
2023-04-13T12:47:07.973Z,8.32
2023-04-13T12:49:36.235Z,7.35
2023-04-13T12:52:04.614Z,9.98
2023-04-13T12:54:32.892Z,7.50
2023-04-13T12:57:01.174Z,7.50
2023-04-13T12:59:29.346Z,7.72
2023-04-13T13:01:58.748Z,10.55
2023-04-13T13:04:27.093Z,7.57
2023-04-13T13:06:55.196Z,8.05
2023-04-13T13:09:23.558Z,8.00
2023-04-13T13:11:51.908Z,8.68
2023-04-13T13:14:20.174Z,8.55
2023-04-13T13:16:48.632Z,9.25
2023-04-13T13:19:17.299Z,11.40
2023-04-13T13:21:45.633Z,8.90
2023-04-13T13:24:13.961Z,8.68
2023-04-13T13:27:07.617Z,8.60
2023-04-13T13:29:30.568Z,7.80
2023-04-13T13:31:58.686Z,7.13
2023-04-13T13:34:26.958Z,8.43
2023-04-13T13:36:55.316Z,9.15
2023-04-13T13:39:23.825Z,7.82
2023-04-13T13:41:52.852Z,8.05
2023-04-13T13:44:22.267Z,8.50
2023-04-13T13:46:50.467Z,7.53
2023-04-13T13:49:21.759Z,8.47
2023-04-13T13:52:08.454Z,9.23
2023-04-13T13:54:45.443Z,9.93
2023-04-13T13:57:13.754Z,7.85
2023-04-13T13:59:41.880Z,7.25
2023-04-13T14:02:10.338Z,8.07
2023-04-13T14:04:38.784Z,8.52
2023-04-13T14:07:07.236Z,8.68
2023-04-13T14:09:35.659Z,8.27
2023-04-13T14:12:03.971Z,8.88
2023-04-13T14:14:32.455Z,8.98
2023-04-13T14:17:00.585Z,7.10
2023-04-13T14:19:28.759Z,8.00
2023-04-13T14:21:57.203Z,7.50
2023-04-13T14:24:26.482Z,8.50
2023-04-13T14:26:55.036Z,8.32
2023-04-13T14:29:23.376Z,8.45
2023-04-13T14:31:51.490Z,8.05
2023-04-13T14:34:19.837Z,9.77
2023-04-13T14:36:50.493Z,7.57
2023-04-13T14:39:20.426Z,9.77
2023-04-13T14:41:48.533Z,8.70
2023-04-13T14:44:16.885Z,7.80
2023-04-13T14:46:45.321Z,7.32
2023-04-13T14:49:13.575Z,7.72
2023-04-13T14:51:41.945Z,9.32
2023-04-13T14:54:10.215Z,8.32
2023-04-13T14:56:38.466Z,7.10
2023-04-13T14:59:06.664Z,7.65
2023-04-13T15:01:34.966Z,6.82
2023-04-13T15:04:04.540Z,7.57
2023-04-13T15:06:32.840Z,8.25
2023-04-13T15:09:01.148Z,7.57
2023-04-13T15:11:29.528Z,8.02
2023-04-13T15:13:57.713Z,7.22
2023-04-13T15:16:26.028Z,6.80
2023-04-13T15:18:54.385Z,8.75
2023-04-13T15:21:22.694Z,8.95
2023-04-13T15:23:50.860Z,7.78
2023-04-13T15:26:22.199Z,7.55
2023-04-13T15:28:50.870Z,7.53
2023-04-13T15:31:19.012Z,6.60
2023-04-13T15:33:47.305Z,7.60
2023-04-13T15:36:16.932Z,7.85
2023-04-13T15:38:45.112Z,7.28
2023-04-13T15:41:13.357Z,7.07
2023-04-13T15:43:41.623Z,7.07
2023-04-13T15:46:09.864Z,6.57
2023-04-13T15:48:38.590Z,6.70
2023-04-13T15:51:08.910Z,9.60
2023-04-13T15:53:37.155Z,11.05
2023-04-13T15:56:09.208Z,7.70
2023-04-13T15:58:37.595Z,7.38
2023-04-13T16:01:09.741Z,7.07
2023-04-13T16:03:38.430Z,7.93
2023-04-13T16:06:07.059Z,8.48
2023-04-13T16:08:35.311Z,8.68
2023-04-13T16:11:03.425Z,8.02
2023-04-13T16:13:47.262Z,7.80
2023-04-13T16:16:17.380Z,7.45
2023-04-13T16:18:45.646Z,8.15
2023-04-13T16:21:13.802Z,7.03
2023-04-13T16:23:42.250Z,7.20
2023-04-13T16:26:10.662Z,6.80
2023-04-13T16:28:38.988Z,7.43
2023-04-13T16:31:10.023Z,7.35
2023-04-13T16:33:38.335Z,6.88
2023-04-13T16:36:06.787Z,6.00
2023-04-13T16:38:35.060Z,6.90
2023-04-13T16:41:03.157Z,8.68
2023-04-13T16:43:31.392Z,6.45
2023-04-13T16:45:59.574Z,6.60
2023-04-13T16:48:27.770Z,6.57
2023-04-13T16:51:00.017Z,6.05
2023-04-13T16:53:28.504Z,7.28
2023-04-13T16:55:56.599Z,6.90
2023-04-13T16:58:25.179Z,6.72
2023-04-13T17:00:53.832Z,6.97
2023-04-13T17:03:22.156Z,7.00
2023-04-13T17:05:50.621Z,6.97
2023-04-13T17:08:18.921Z,8.43
2023-04-13T17:10:47.031Z,7.43
2023-04-13T17:13:15.289Z,7.05
2023-04-13T17:15:43.762Z,7.05
2023-04-13T17:18:12.097Z,7.72
2023-04-13T17:20:40.410Z,8.35
2023-04-13T17:23:08.807Z,6.80
2023-04-13T17:25:37.034Z,8.15
2023-04-13T17:28:05.605Z,9.20
2023-04-13T17:30:33.954Z,7.45
2023-04-13T17:33:02.975Z,7.53
2023-04-13T17:35:31.382Z,6.82
2023-04-13T17:37:59.662Z,5.97
2023-04-13T17:40:27.895Z,7.93
2023-04-13T17:42:56.145Z,7.13
2023-04-13T17:45:24.291Z,8.27
2023-04-13T17:47:52.844Z,18.13
2023-04-13T17:50:21.099Z,77.50
2023-04-13T17:52:50.272Z,17.17
2023-04-13T17:55:18.659Z,38.78
2023-04-13T17:57:46.969Z,14.80
2023-04-13T18:00:15.714Z,11.40
2023-04-13T18:02:44.232Z,9.80
2023-04-13T18:05:12.465Z,7.90
2023-04-13T18:07:40.645Z,8.02
2023-04-13T18:10:10.062Z,17.13
2023-04-13T18:12:41.862Z,14.32
2023-04-13T18:15:10.845Z,13.50
2023-04-13T18:17:40.103Z,31.13
2023-04-13T18:20:08.987Z,17.70
2023-04-13T18:22:37.282Z,15.30
2023-04-13T18:25:05.966Z,10.57
2023-04-13T18:27:34.143Z,12.25
2023-04-13T18:30:02.737Z,13.25
2023-04-13T18:32:30.889Z,14.70
2023-04-13T18:34:59.062Z,11.50
2023-04-13T18:37:27.277Z,9.55
2023-04-13T18:39:55.644Z,11.98
2023-04-13T18:42:23.953Z,15.85
2023-04-13T18:44:52.288Z,13.00
2023-04-13T18:47:20.789Z,13.98
2023-04-13T18:49:49.876Z,15.63
2023-04-13T18:52:18.203Z,13.65
2023-04-13T18:54:46.508Z,13.68
2023-04-13T18:57:14.748Z,16.45
2023-04-13T18:59:43.116Z,14.10
2023-04-13T19:02:12.164Z,22.15
2023-04-13T19:04:40.668Z,24.85
2023-04-13T19:07:08.997Z,19.90
2023-04-13T19:09:38.095Z,20.05
2023-04-13T19:12:07.294Z,14.60
2023-04-13T19:14:35.636Z,10.63
2023-04-13T19:17:03.765Z,12.48
2023-04-13T19:19:31.957Z,13.95
2023-04-13T19:22:00.117Z,28.98
2023-04-13T19:24:28.440Z,26.33
2023-04-13T19:26:56.795Z,16.55
2023-04-13T19:29:25.278Z,13.48
2023-04-13T19:31:53.677Z,16.55
2023-04-13T19:34:22.120Z,12.32
2023-04-13T19:36:50.334Z,12.40
2023-04-13T19:39:18.597Z,16.65
2023-04-13T19:41:46.692Z,17.30
2023-04-13T19:44:15.065Z,18.83
2023-04-13T19:46:43.590Z,22.98
2023-04-13T19:49:11.833Z,16.27
2023-04-13T19:51:40.447Z,18.63
2023-04-13T19:54:08.629Z,15.00
2023-04-13T19:58:05.064Z,20.33
2023-04-13T20:00:33.274Z,12.40
2023-04-13T20:03:01.666Z,17.40
2023-04-13T20:05:30.453Z,13.63
2023-04-13T20:07:58.818Z,13.30
2023-04-13T20:10:27.123Z,13.43
2023-04-13T20:12:55.506Z,18.35
2023-04-13T20:15:23.790Z,17.50
2023-04-13T20:17:52.384Z,19.02
2023-04-13T20:20:23.266Z,23.13
2023-04-13T20:22:52.198Z,18.80
2023-04-13T20:25:20.316Z,34.88
2023-04-13T20:27:48.671Z,30.77
2023-04-13T20:30:16.847Z,32.90
2023-04-13T20:32:45.095Z,12.27
2023-04-13T20:35:13.718Z,20.98
2023-04-13T20:37:42.058Z,20.90
2023-04-13T20:40:10.184Z,25.98
2023-04-13T20:42:38.591Z,28.10
2023-04-13T20:45:07.246Z,25.92
2023-04-13T20:47:35.693Z,27.38
2023-04-13T20:50:04.786Z,30.98
2023-04-13T20:52:32.991Z,47.80
2023-04-13T20:55:01.112Z,41.60
2023-04-13T20:57:29.627Z,67.32
2023-04-13T20:59:57.803Z,42.65
2023-04-13T21:02:26.248Z,80.38
2023-04-13T21:04:54.672Z,74.20
2023-04-13T21:07:23.008Z,23.50
2023-04-13T21:09:51.173Z,32.55
2023-04-13T21:12:19.636Z,34.17
2023-04-13T21:14:47.846Z,33.58
2023-04-13T21:17:16.328Z,18.92
2023-04-13T21:19:44.687Z,27.92
2023-04-13T21:22:12.961Z,33.72
2023-04-13T21:24:41.414Z,92.07
2023-04-13T21:27:09.737Z,70.28
2023-04-13T21:29:38.020Z,58.40
2023-04-13T21:32:06.591Z,104.43
2023-04-13T21:34:35.129Z,74.93
2023-04-13T21:37:03.422Z,65.68
2023-04-13T21:39:31.949Z,79.80
2023-04-13T21:42:00.265Z,44.70
2023-04-13T21:44:30.283Z,16.02
2023-04-13T21:46:59.290Z,13.70
2023-04-13T21:49:27.811Z,16.20
2023-04-13T21:51:56.031Z,17.65
2023-04-13T21:54:24.483Z,19.55
2023-04-13T21:56:53.130Z,26.75
2023-04-13T21:59:21.344Z,27.60
2023-04-13T22:01:49.872Z,25.25
2023-04-13T22:04:19.636Z,20.25
2023-04-13T22:06:48.043Z,17.42
2023-04-13T22:09:16.342Z,16.88
2023-04-13T22:11:44.645Z,19.17
2023-04-13T22:14:14.333Z,25.67
2023-04-13T22:16:42.414Z,24.98
2023-04-13T22:19:10.661Z,20.10
2023-04-13T22:21:38.967Z,19.20
2023-04-13T22:24:07.235Z,16.95
2023-04-13T22:26:35.293Z,17.60
2023-04-13T22:29:03.623Z,20.60
2023-04-13T22:31:31.838Z,19.33
2023-04-13T22:34:00.419Z,19.10
2023-04-13T22:36:28.778Z,18.13
2023-04-13T22:38:56.981Z,23.13
2023-04-13T22:41:25.110Z,26.30
2023-04-13T22:43:53.358Z,35.60
2023-04-13T22:46:21.564Z,33.25
2023-04-13T22:48:49.782Z,33.33
2023-04-13T22:51:18.218Z,33.30
2023-04-13T22:53:48.783Z,29.45
2023-04-13T22:56:17.198Z,24.15
2023-04-13T22:58:45.520Z,23.20
2023-04-13T23:01:13.758Z,21.33
2023-04-13T23:03:42.105Z,26.00
2023-04-13T23:06:10.547Z,28.92
2023-04-13T23:08:38.656Z,26.08
2023-04-13T23:11:10.877Z,27.38
2023-04-13T23:13:39.184Z,24.23
2023-04-13T23:16:07.597Z,19.77
2023-04-13T23:18:35.986Z,16.52
2023-04-13T23:21:11.515Z,15.50
2023-04-13T23:23:40.691Z,12.52
2023-04-13T23:26:08.797Z,13.75
2023-04-13T23:28:36.950Z,12.40
2023-04-13T23:31:09.287Z,13.70
2023-04-13T23:33:37.486Z,13.68
2023-04-13T23:36:06.120Z,13.30
2023-04-13T23:38:34.482Z,14.13
2023-04-13T23:41:02.625Z,14.63
2023-04-13T23:43:30.843Z,13.07
2023-04-13T23:45:59.246Z,13.80
2023-04-13T23:48:27.434Z,13.48
2023-04-13T23:50:55.596Z,13.57
2023-04-13T23:53:23.974Z,14.13
2023-04-13T23:55:52.039Z,15.43
2023-04-13T23:58:20.357Z,15.70
